Fort McCoy, Florida
Current Conditions -  °F | °C
As of 1:50 PM on Thursday 30 Oct 2014 (Local Time) from KOCF Reporting Station
Broken Clouds Broken Clouds  
Wind Chill: 79°   Ceiling: 6000
Heat Index: 81°   Visibility: 10mi
Dew Point: 64°   Wind: 0mph
Humidity: 61%   Direction: NA
Pressure: 29.95"   Gusts: NA
Location:  29.36°N, 81.97°W
Report Text: KOCF 301750Z 00000KT 10SM SCT020 BKN060 26/18 A2995
Loading
Personal Weather Stations






























Interactive Weather Map
Tropical Storm Tracking
New forecast layout! Learn more

10-Day Weather Forecast

Advertisements
Track Severe Weather on mobile